Time;durP1;ratioP1;P1;durP2;ratioP2;P2;SDS_P1;SDS_P2;PMS_P1;PMS_P2;Temp;Humidity;BMP_temperature;BMP_pressure;BME280_temperature;BME280_humidity;BME280_pressure;Samples;Min_cycle;Max_cycle;Signal;HPM_P1;HPM_P2
2021/11/30 02:50:13;;;;;;;;;;;;;;;4.75;100.00;99565.53;4954357;28;20400;-87
2021/11/30 02:52:39;;;;;;;;;;;;;;;4.78;100.00;99571.56;4957230;28;19923;-89
2021/11/30 02:55:04;;;;;;;;;;;;;;;4.87;100.00;99581.03;4957280;28;20321;-84
2021/11/30 02:57:29;;;;;;;;;;;;;;;4.88;100.00;99578.38;4939997;29;20369;-85
2021/11/30 02:59:55;;;;;;;;;;;;;;;4.91;100.00;99575.66;4939987;28;19977;-85
2021/11/30 03:02:25;;;;;;;;;;;;;;;4.93;100.00;99580.88;4955801;28;19965;-85
2021/11/30 03:04:51;;;;;;;;;;;;;;;4.97;100.00;99579.03;4939947;29;19950;-85
2021/11/30 03:07:22;;;;;;;;;;;;;;;5.00;100.00;99576.34;4956976;28;19923;-88
2021/11/30 03:09:47;;;;;;;;;;;;;;;5.02;100.00;99564.03;4956911;28;19964;-86
2021/11/30 03:12:13;;;;;;;;;;;;;;;5.02;100.00;99570.13;4939141;29;20380;-87
2021/11/30 03:14:38;;;;;;;;;;;;;;;5.08;100.00;99563.91;4955999;28;19961;-88
2021/11/30 03:17:04;;;;;;;;;;;;;;;5.08;100.00;99549.00;4955378;28;20022;-87
2021/11/30 03:19:30;;;;;;;;;;;;;;;5.12;100.00;99541.88;4939590;29;19973;-88
2021/11/30 03:21:56;;;;;;;;;;;;;;;5.15;100.00;99540.97;4956788;28;19922;-88
2021/11/30 03:24:21;;;;;;;;;;;;;;;5.17;100.00;99534.78;4956461;28;19918;-88
2021/11/30 03:26:46;;;;;;;;;;;;;;;5.36;100.00;99527.31;4939433;29;19926;-88
2021/11/30 03:29:12;;;;;;;;;;;;;;;5.41;100.00;99529.81;4956604;28;19925;-87
2021/11/30 03:34:07;;;;;;;;;;;;;;;5.49;100.00;99519.97;4955967;28;19988;-88
2021/11/30 03:36:33;;;;;;;;;;;;;;;5.53;100.00;99520.75;4939434;29;19969;-87
2021/11/30 03:39:00;;;;;;;;;;;;;;;5.53;100.00;99523.38;4956535;28;20285;-87
2021/11/30 03:41:28;;;;;;;;;;;;;;;5.55;100.00;99519.81;4955844;29;19973;-87
2021/11/30 03:43:53;;;;;;;;;;;;;;;5.53;100.00;99515.47;4956416;28;19919;-87
2021/11/30 03:46:18;;;;;;;;;;;;;;;5.54;100.00;99510.19;4939054;28;19923;-87
2021/11/30 03:48:44;;;;;;;;;;;;;;;5.55;100.00;99514.56;4955022;28;19929;-87
2021/11/30 03:51:09;;;;;;;;;;;;;;;5.56;100.00;99511.00;4956188;28;19926;-87
2021/11/30 03:53:34;;;;;;;;;;;;;;;4.76;100.00;99507.75;4939255;29;19919;-87
2021/11/30 03:55:59;;;;;;;;;;;;;;;4.27;100.00;99499.22;4956272;28;19915;-87
2021/11/30 03:58:25;;;;;;;;;;;;;;;4.01;100.00;99499.78;4956039;28;19957;-87
2021/11/30 04:00:50;;;;;;;;;;;;;;;3.80;100.00;99491.47;4954914;28;19925;-87
2021/11/30 09:03:17;;;;;;;;;;;;;;;1.54;79.47;99359.97;5295974;23;20293;-87
2021/11/30 09:06:01;;;;;;;;;;;;;;;1.47;79.73;99363.56;4965424;28;19922;-91
2021/11/30 09:08:26;;;;;;;;;;;;;;;1.51;79.71;99354.78;4979738;28;19929;-90
2021/11/30 09:10:52;;;;;;;;;;;;;;;2.38;83.02;99354.41;4966228;28;20249;-82
2021/11/30 09:13:17;;;;;;;;;;;;;;;2.34;84.44;99356.19;4984508;28;19961;-90
2021/11/30 09:15:43;;;;;;;;;;;;;;;1.97;84.89;99355.91;4969619;28;20404;-89
2021/11/30 09:18:08;;;;;;;;;;;;;;;1.81;84.28;99370.94;4968287;28;19918;-92
2021/11/30 09:20:34;;;;;;;;;;;;;;;1.74;83.71;99364.06;4968937;28;19922;-89
2021/11/30 09:23:00;;;;;;;;;;;;;;;1.81;82.80;99360.50;4996198;28;19914;-91
2021/11/30 09:25:25;;;;;;;;;;;;;;;1.79;82.08;99362.28;4964720;28;19922;-87
2021/11/30 09:27:51;;;;;;;;;;;;;;;1.97;82.39;99345.44;4965914;28;19925;-91
2021/11/30 09:30:18;;;;;;;;;;;;;;;1.94;81.85;99351.56;4966623;28;19925;-91
2021/11/30 09:32:43;;;;;;;;;;;;;;;1.95;82.14;99349.84;4963339;28;19922;-91
2021/11/30 09:35:12;;;;;;;;;;;;;;;1.91;81.92;99343.78;4983565;28;20301;-90
2021/11/30 09:37:38;;;;;;;;;;;;;;;1.92;81.99;99345.53;4980608;28;19918;-91
2021/11/30 09:40:05;;;;;;;;;;;;;;;3.21;86.38;99349.44;4965648;28;19961;-85
2021/11/30 09:42:31;;;;;;;;;;;;;;;3.40;87.04;99339.47;4982078;28;19922;-88
2021/11/30 09:44:57;;;;;;;;;;;;;;;2.67;87.25;99338.22;4982249;28;19922;-88
2021/11/30 09:47:22;;;;;;;;;;;;;;;2.37;86.85;99336.97;4964457;28;20404;-88
2021/11/30 09:49:48;;;;;;;;;;;;;;;2.25;85.98;99343.28;4966398;28;19921;-89
2021/11/30 09:52:13;;;;;;;;;;;;;;;2.22;85.35;99356.41;4965817;28;20001;-88
2021/11/30 09:54:39;;;;;;;;;;;;;;;2.16;84.64;99354.72;4997228;28;20328;-88
2021/11/30 09:57:04;;;;;;;;;;;;;;;2.13;83.91;99351.31;4964606;28;19926;-89
2021/11/30 09:59:29;;;;;;;;;;;;;;;2.12;83.66;99341.72;4995898;28;20009;-89
2021/11/30 10:01:55;;;;;;;;;;;;;;;2.08;83.14;99343.53;4964235;28;19980;-89
2021/11/30 10:04:20;;;;;;;;;;;;;;;2.08;82.73;99340.94;4965376;28;19976;-88
2021/11/30 10:06:46;;;;;;;;;;;;;;;2.07;82.32;99327.88;4965362;28;19926;-87
2021/11/30 10:09:20;;;;;;;;;;;;;;;2.04;81.85;99325.31;4963121;28;19930;-89
2021/11/30 10:11:55;;;;;;;;;;;;;;;2.04;81.39;99330.53;4980040;28;19925;-89
2021/11/30 10:14:24;;;;;;;;;;;;;;;2.07;81.43;99327.88;4963941;28;19922;-88
2021/11/30 10:17:09;;;;;;;;;;;;;;;2.05;81.04;99317.44;4963226;28;19980;-88
2021/11/30 10:19:35;;;;;;;;;;;;;;;2.07;80.68;99314.81;4972331;28;19922;-89
2021/11/30 10:22:00;;;;;;;;;;;;;;;2.04;80.47;99327.94;4982772;28;20369;-87
2021/11/30 10:24:26;;;;;;;;;;;;;;;2.06;80.36;99337.47;4997388;28;20012;-86
2021/11/30 10:26:54;;;;;;;;;;;;;;;2.07;80.38;99326.13;4982875;28;19940;-88
2021/11/30 10:29:19;;;;;;;;;;;;;;;2.10;80.28;99335.69;4965372;28;20384;-88
2021/11/30 10:31:46;;;;;;;;;;;;;;;2.09;80.17;99333.94;4979955;28;19976;-85
2021/11/30 10:34:13;;;;;;;;;;;;;;;2.08;79.73;99329.63;4997134;28;19922;-88
2021/11/30 10:36:45;;;;;;;;;;;;;;;2.10;79.75;99327.84;4981563;28;20000;-85
2021/11/30 10:39:18;;;;;;;;;;;;;;;2.16;79.70;99330.34;4982530;28;19925;-87
2021/11/30 10:41:46;;;;;;;;;;;;;;;2.15;79.57;99329.50;4982513;28;19922;-86
2021/11/30 10:44:12;;;;;;;;;;;;;;;2.16;79.41;99320.75;4964653;28;20275;-87
2021/11/30 10:46:38;;;;;;;;;;;;;;;2.17;79.54;99321.59;4981005;28;19976;-88
2021/11/30 10:49:04;;;;;;;;;;;;;;;2.19;79.23;99317.25;4981092;28;19945;-84
2021/11/30 10:51:40;;;;;;;;;;;;;;;2.20;79.25;99313.72;4982211;28;19926;-85
2021/11/30 10:54:05;;;;;;;;;;;;;;;2.23;79.10;99326.75;4964573;28;19966;-85
2021/11/30 10:56:31;;;;;;;;;;;;;;;2.25;79.15;99322.38;4964822;28;19979;-86
2021/11/30 10:58:56;;;;;;;;;;;;;;;2.23;78.90;99337.19;4964566;28;19926;-87
2021/11/30 11:01:23;;;;;;;;;;;;;;;2.27;79.00;99322.34;4981455;28;20361;-86
2021/11/30 11:04:24;;;;;;;;;;;;;;;2.27;78.90;99328.44;4980724;28;19926;-87
2021/11/30 11:07:04;;;;;;;;;;;;;;;2.28;78.96;99311.88;4920343;29;20018;-88
2021/11/30 11:09:52;;;;;;;;;;;;;;;2.29;78.73;99315.34;4974122;28;19925;-87
2021/11/30 11:12:27;;;;;;;;;;;;;;;2.31;78.64;99298.75;4967766;28;20020;-83
2021/11/30 11:14:54;;;;;;;;;;;;;;;2.31;78.56;99293.50;4982199;28;19925;-85
2021/11/30 11:17:26;;;;;;;;;;;;;;;2.32;78.35;99289.13;4966972;28;20441;-88
2021/11/30 11:19:51;;;;;;;;;;;;;;;2.38;78.27;99290.75;4974408;28;19930;-88
2021/11/30 11:22:19;;;;;;;;;;;;;;;2.34;78.02;99288.19;4983348;28;20361;-87
2021/11/30 11:24:48;;;;;;;;;;;;;;;2.38;78.17;99288.16;4967465;28;19922;-87
2021/11/30 11:27:15;;;;;;;;;;;;;;;2.39;77.96;99289.88;4967687;28;19933;-85
2021/11/30 11:29:43;;;;;;;;;;;;;;;2.39;77.85;99284.66;4968043;28;19933;-85
2021/11/30 11:32:09;;;;;;;;;;;;;;;2.40;77.88;99295.09;4968055;28;19922;-86
2021/11/30 11:34:37;;;;;;;;;;;;;;;2.43;77.97;99296.81;4961605;28;19926;-83
2021/11/30 11:37:04;;;;;;;;;;;;;;;2.48;77.87;99297.56;4999325;28;19933;-87
2021/11/30 11:39:30;;;;;;;;;;;;;;;2.51;78.17;99293.16;4999289;28;19922;-86
2021/11/30 11:41:55;;;;;;;;;;;;;;;2.50;77.94;99299.25;4966498;28;19941;-84
2021/11/30 11:44:21;;;;;;;;;;;;;;;2.50;77.77;99295.78;4967386;28;20018;-88
2021/11/30 11:46:48;;;;;;;;;;;;;;;2.50;77.72;99294.03;4964855;28;19961;-86
2021/11/30 11:49:18;;;;;;;;;;;;;;;2.52;77.67;99292.28;4985083;28;20043;-85
2021/11/30 11:51:45;;;;;;;;;;;;;;;2.53;77.57;99293.13;4998647;28;19921;-84
2021/11/30 11:54:31;;;;;;;;;;;;;;;2.56;77.56;99293.06;4999286;28;20358;-84
2021/11/30 11:56:58;;;;;;;;;;;;;;;2.60;77.67;99297.38;4975505;28;19921;-84
2021/11/30 11:59:27;;;;;;;;;;;;;;;2.62;77.58;99292.97;4985182;28;19922;-83
2021/11/30 12:02:11;;;;;;;;;;;;;;;2.63;77.62;99289.47;4966157;28;19922;-83
2021/11/30 12:04:41;;;;;;;;;;;;;;;2.64;77.64;99296.41;4984605;28;19985;-83
2021/11/30 12:07:07;;;;;;;;;;;;;;;2.66;77.59;99297.22;4966122;28;20397;-87
2021/11/30 12:09:32;;;;;;;;;;;;;;;2.69;77.71;99304.16;4965077;28;19922;-83
2021/11/30 12:12:10;;;;;;;;;;;;;;;2.72;77.93;99297.13;4983358;28;20020;-83
2021/11/30 12:14:37;;;;;;;;;;;;;;;2.71;77.68;99300.66;4974653;28;20654;-82
2021/11/30 12:17:04;;;;;;;;;;;;;;;2.72;77.40;99307.59;4965445;28;19922;-84
2021/11/30 12:19:31;;;;;;;;;;;;;;;2.76;77.59;99303.19;4966312;28;19922;-83
2021/11/30 12:21:56;;;;;;;;;;;;;;;2.77;77.70;99296.19;4959608;28;19926;-83
2021/11/30 12:24:41;;;;;;;;;;;;;;;2.78;77.45;99282.22;4966271;28;19933;-84
2021/11/30 12:27:16;;;;;;;;;;;;;;;2.78;77.11;99304.00;4998302;28;21560;-84
2021/11/30 12:29:42;;;;;;;;;;;;;;;2.80;77.35;99315.28;4974488;28;19922;-86
2021/11/30 12:32:31;;;;;;;;;;;;;;;2.81;77.31;99298.72;4965368;28;19922;-83
2021/11/30 12:35:01;;;;;;;;;;;;;;;2.87;77.45;99297.72;4990249;28;19997;-86
2021/11/30 12:37:27;;;;;;;;;;;;;;;2.88;77.49;99291.59;4973352;28;20377;-86
2021/11/30 12:40:05;;;;;;;;;;;;;;;2.85;77.39;99289.91;4999498;28;20386;-85
2021/11/30 12:42:40;;;;;;;;;;;;;;;2.89;77.54;99281.09;4982846;28;20361;-86
2021/11/30 12:45:09;;;;;;;;;;;;;;;2.90;77.61;99280.22;4981434;28;19922;-86
2021/11/30 12:47:36;;;;;;;;;;;;;;;2.94;77.94;99280.16;4965057;28;20016;-86
2021/11/30 12:50:01;;;;;;;;;;;;;;;2.98;78.17;99282.66;4966538;28;19957;-85
2021/11/30 12:52:33;;;;;;;;;;;;;;;3.20;79.26;99274.38;4984653;28;20377;-85
2021/11/30 12:55:02;;;;;;;;;;;;;;;3.37;81.18;99277.50;4974164;28;19919;-83
2021/11/30 12:57:33;;;;;;;;;;;;;;;3.48;82.92;99269.41;4983610;28;19949;-84
2021/11/30 13:00:07;;;;;;;;;;;;;;;3.56;84.61;99274.50;4983294;28;20360;-85
2021/11/30 13:02:36;;;;;;;;;;;;;;;3.58;85.91;99262.22;4964154;28;20528;-84
2021/11/30 13:05:07;;;;;;;;;;;;;;;3.57;87.06;99274.44;4966520;28;20034;-87
2021/11/30 13:07:33;;;;;;;;;;;;;;;3.54;87.93;99273.66;4974104;28;19919;-86
2021/11/30 13:09:58;;;;;;;;;;;;;;;3.52;89.04;99276.31;4964919;28;20340;-86
2021/11/30 13:12:28;;;;;;;;;;;;;;;3.44;89.87;99265.13;4966227;28;19925;-83
2021/11/30 13:14:54;;;;;;;;;;;;;;;3.42;90.88;99274.78;4997534;28;19929;-86
2021/11/30 13:17:20;;;;;;;;;;;;;;;3.35;91.88;99274.06;4982290;28;19926;-87
2021/11/30 13:19:50;;;;;;;;;;;;;;;4.52;94.30;99263.38;4998521;28;20337;-86
2021/11/30 13:22:16;;;;;;;;;;;;;;;4.30;93.08;99265.72;4961729;28;19926;-84
2021/11/30 13:24:45;;;;;;;;;;;;;;;3.81;94.38;99267.78;4965216;28;20351;-85
2021/11/30 13:27:15;;;;;;;;;;;;;;;3.68;96.10;99266.34;4996541;28;19996;-86
2021/11/30 13:29:57;;;;;;;;;;;;;;;3.80;98.66;99267.81;4965248;28;19926;-86
2021/11/30 13:32:24;;;;;;;;;;;;;;;3.93;100.00;99255.28;4981003;28;19922;-85
2021/11/30 13:35:05;;;;;;;;;;;;;;;4.10;100.00;99247.88;4997186;28;19922;-84
2021/11/30 13:37:30;;;;;;;;;;;;;;;4.27;100.00;99255.28;4981985;28;19926;-84
2021/11/30 13:39:55;;;;;;;;;;;;;;;4.33;100.00;99251.66;4981759;28;19921;-85
2021/11/30 13:42:21;;;;;;;;;;;;;;;4.40;100.00;99266.31;4982898;28;19925;-83
2021/11/30 13:44:48;;;;;;;;;;;;;;;4.44;100.00;99259.25;4964284;28;19973;-86
2021/11/30 13:47:14;;;;;;;;;;;;;;;4.47;100.00;99267.06;4980642;28;19932;-86
2021/11/30 13:49:40;;;;;;;;;;;;;;;4.57;100.00;99273.78;4964724;28;20012;-83
2021/11/30 13:52:17;;;;;;;;;;;;;;;4.58;100.00;99270.25;4964531;28;20354;-86
2021/11/30 13:54:48;;;;;;;;;;;;;;;4.62;100.00;99263.16;4980588;28;20294;-85
2021/11/30 13:57:15;;;;;;;;;;;;;;;4.66;100.00;99267.41;4981283;28;19940;-83
2021/11/30 13:59:46;;;;;;;;;;;;;;;4.69;100.00;99272.56;4995856;28;19926;-83
2021/11/30 14:02:11;;;;;;;;;;;;;;;4.76;100.00;99268.88;4996621;28;19918;-83
2021/11/30 14:04:38;;;;;;;;;;;;;;;4.76;100.00;99263.63;4961348;28;19981;-83
2021/11/30 14:07:04;;;;;;;;;;;;;;;4.82;100.00;99268.72;4962153;28;19927;-85
2021/11/30 14:09:31;;;;;;;;;;;;;;;4.80;100.00;99267.88;4962633;28;19926;-85
2021/11/30 14:11:58;;;;;;;;;;;;;;;4.86;100.00;99272.97;4963019;28;19934;-86
2021/11/30 14:14:24;;;;;;;;;;;;;;;4.94;100.00;99267.50;4961100;28;19926;-85
2021/11/30 14:16:49;;;;;;;;;;;;;;;4.93;100.00;99270.19;4960739;28;20616;-85
2021/11/30 14:19:15;;;;;;;;;;;;;;;4.98;100.00;99271.78;4962043;28;19923;-84
2021/11/30 14:21:41;;;;;;;;;;;;;;;4.98;100.00;99273.53;4961753;28;19922;-85
2021/11/30 14:24:06;;;;;;;;;;;;;;;5.05;100.00;99275.09;4962169;28;19999;-83
2021/11/30 14:26:32;;;;;;;;;;;;;;;4.84;100.00;99269.53;4994183;28;20325;-86
2021/11/30 14:28:58;;;;;;;;;;;;;;;3.98;100.00;99280.47;4962285;28;19929;-83
2021/11/30 14:31:24;;;;;;;;;;;;;;;3.72;100.00;99273.25;4961789;28;19922;-86
2021/11/30 14:33:49;;;;;;;;;;;;;;;3.63;100.00;99283.94;4960452;28;19928;-86
2021/11/30 14:36:22;;;;;;;;;;;;;;;3.36;100.00;99273.16;4961353;28;19938;-86
2021/11/30 14:38:49;;;;;;;;;;;;;;;3.36;100.00;99286.25;4959897;28;19922;-84
2021/11/30 14:41:15;;;;;;;;;;;;;;;3.31;100.00;99271.53;4961980;28;19926;-85
2021/11/30 14:43:41;;;;;;;;;;;;;;;3.26;100.00;99280.34;4962580;28;19922;-86
2021/11/30 14:46:07;;;;;;;;;;;;;;;3.20;99.65;99282.25;4962800;28;19931;-85
2021/11/30 14:48:37;;;;;;;;;;;;;;;3.19;98.63;99289.25;4964259;28;19922;-84
2021/11/30 14:51:04;;;;;;;;;;;;;;;3.11;98.12;99287.66;4965208;28;20045;-84
2021/11/30 14:53:31;;;;;;;;;;;;;;;3.05;97.13;99286.91;4965909;28;19930;-86
2021/11/30 14:55:57;;;;;;;;;;;;;;;3.03;96.60;99283.47;4963693;28;19922;-84
2021/11/30 14:58:24;;;;;;;;;;;;;;;3.01;95.88;99295.69;4966468;28;19918;-85
2021/11/30 15:00:50;;;;;;;;;;;;;;;2.98;95.41;99290.50;4964233;28;19925;-85
2021/11/30 15:03:16;;;;;;;;;;;;;;;2.88;94.88;99287.22;4969403;28;19969;-84
2021/11/30 15:05:46;;;;;;;;;;;;;;;2.89;94.53;99288.97;4975403;28;19926;-84
2021/11/30 15:08:38;;;;;;;;;;;;;;;2.92;94.14;99290.66;4986650;28;19918;-84
2021/11/30 15:11:09;;;;;;;;;;;;;;;2.79;93.29;99282.16;4965729;28;19922;-83
2021/11/30 15:13:36;;;;;;;;;;;;;;;2.72;92.71;99291.88;4985805;28;19973;-83
2021/11/30 15:16:03;;;;;;;;;;;;;;;2.75;92.25;99282.28;4983271;28;19957;-86
2021/11/30 15:18:29;;;;;;;;;;;;;;;2.69;91.22;99284.09;4967270;28;19968;-84
2021/11/30 15:20:54;;;;;;;;;;;;;;;2.70;90.88;99283.22;4985353;28;20428;-83
2021/11/30 15:23:20;;;;;;;;;;;;;;;2.69;90.97;99293.72;4984878;28;20429;-83
2021/11/30 15:25:59;;;;;;;;;;;;;;;2.65;90.45;99289.41;4984272;28;20330;-82
2021/11/30 15:28:25;;;;;;;;;;;;;;;2.60;89.70;99292.13;4976091;28;19925;-84
2021/11/30 15:30:50;;;;;;;;;;;;;;;2.54;89.48;99295.72;4984995;28;19922;-85
2021/11/30 15:33:15;;;;;;;;;;;;;;;2.54;89.19;99302.69;4983476;28;19921;-84
2021/11/30 15:35:40;;;;;;;;;;;;;;;2.54;88.50;99305.31;4968144;28;19925;-84
2021/11/30 15:38:06;;;;;;;;;;;;;;;2.51;88.25;99302.75;4985615;28;19969;-84
2021/11/30 15:40:31;;;;;;;;;;;;;;;2.42;88.05;99295.91;4984359;28;19997;-84
2021/11/30 15:43:00;;;;;;;;;;;;;;;2.43;87.59;99302.03;4999517;28;19921;-82
2021/11/30 15:45:25;;;;;;;;;;;;;;;2.38;87.11;99299.50;4967739;28;19928;-85
2021/11/30 15:47:50;;;;;;;;;;;;;;;2.29;87.20;99297.88;4974672;28;20016;-85
2021/11/30 15:50:16;;;;;;;;;;;;;;;2.36;87.09;99309.97;4983185;28;20016;-85
2021/11/30 15:52:41;;;;;;;;;;;;;;;2.37;87.09;99300.38;4967805;28;19936;-84
2021/11/30 15:55:15;;;;;;;;;;;;;;;2.36;86.97;99291.69;4999452;28;20057;-85
2021/11/30 15:57:41;;;;;;;;;;;;;;;2.35;86.87;99299.53;4983649;28;20020;-84
2021/11/30 16:00:09;;;;;;;;;;;;;;;2.29;86.72;99297.03;4983952;28;20360;-85
2021/11/30 16:02:34;;;;;;;;;;;;;;;2.28;86.72;99288.34;4981927;28;19981;-83
2021/11/30 16:05:00;;;;;;;;;;;;;;;2.25;86.35;99298.84;4982980;28;19933;-83
2021/11/30 16:07:26;;;;;;;;;;;;;;;2.20;86.47;99292.81;4965546;28;19922;-85
2021/11/30 16:09:51;;;;;;;;;;;;;;;2.22;86.44;99288.44;4984319;28;19926;-84
2021/11/30 16:12:17;;;;;;;;;;;;;;;2.14;85.57;99292.94;4965697;28;20290;-85
2021/11/30 16:14:42;;;;;;;;;;;;;;;2.16;85.75;99304.22;4984206;28;19964;-84
2021/11/30 16:17:08;;;;;;;;;;;;;;;2.16;85.63;99301.59;4982087;28;19922;-84
2021/11/30 16:19:33;;;;;;;;;;;;;;;2.13;85.58;99299.88;4965486;28;19930;-83
2021/11/30 16:21:59;;;;;;;;;;;;;;;2.12;86.09;99295.56;4983484;28;19922;-83
2021/11/30 16:24:25;;;;;;;;;;;;;;;2.11;85.78;99298.22;4982956;28;19922;-84
2021/11/30 16:26:50;;;;;;;;;;;;;;;2.07;85.76;99299.97;4982818;28;19928;-83
2021/11/30 16:29:16;;;;;;;;;;;;;;;2.07;85.42;99293.91;4999504;28;19954;-86
2021/11/30 16:31:41;;;;;;;;;;;;;;;2.11;85.17;99303.44;4991536;28;20411;-83
2021/11/30 16:34:10;;;;;;;;;;;;;;;2.10;85.16;99299.94;4965947;28;19922;-85
2021/11/30 16:36:36;;;;;;;;;;;;;;;2.04;85.11;99317.47;4983878;28;19922;-85
2021/11/30 16:39:06;;;;;;;;;;;;;;;2.03;85.33;99314.00;4980917;28;19989;-83
2021/11/30 16:41:32;;;;;;;;;;;;;;;2.09;85.16;99302.56;4983840;28;20277;-84
2021/11/30 16:43:57;;;;;;;;;;;;;;;2.00;85.08;99308.81;4966443;28;20020;-84
2021/11/30 16:46:22;;;;;;;;;;;;;;;1.99;85.09;99307.97;4983993;28;20012;-83
2021/11/30 16:48:48;;;;;;;;;;;;;;;1.96;85.08;99304.53;4998248;28;19977;-82
2021/11/30 16:51:14;;;;;;;;;;;;;;;1.98;85.07;99306.22;4965645;28;20270;-84
2021/11/30 16:53:40;;;;;;;;;;;;;;;1.98;85.11;99306.22;4982814;28;19937;-83
2021/11/30 16:56:05;;;;;;;;;;;;;;;1.95;85.31;99303.66;4982307;28;19929;-84
2021/11/30 16:58:34;;;;;;;;;;;;;;;1.94;85.17;99291.47;4983221;28;20070;-86
2021/11/30 17:01:00;;;;;;;;;;;;;;;1.99;84.64;99288.78;4981096;28;19972;-85
2021/11/30 17:03:25;;;;;;;;;;;;;;;2.02;84.70;99274.81;4981941;28;19929;-83
2021/11/30 17:05:53;;;;;;;;;;;;;;;1.95;84.67;99287.13;4983280;28;19922;-84
2021/11/30 17:08:18;;;;;;;;;;;;;;;1.94;84.45;99267.09;4981499;28;20389;-86
2021/11/30 17:10:43;;;;;;;;;;;;;;;1.95;84.21;99274.06;4982597;28;19983;-84
2021/11/30 17:13:08;;;;;;;;;;;;;;;1.89;84.12;99280.25;4983395;28;20025;-85
2021/11/30 17:15:34;;;;;;;;;;;;;;;1.87;84.01;99279.41;4982990;28;19950;-85
2021/11/30 17:17:59;;;;;;;;;;;;;;;1.92;83.95;99277.59;4981644;28;19925;-84
2021/11/30 17:20:25;;;;;;;;;;;;;;;1.93;83.94;99281.94;4982595;28;20427;-83
2021/11/30 17:22:54;;;;;;;;;;;;;;;1.97;83.71;99288.81;4983141;28;19926;-84
2021/11/30 17:25:20;;;;;;;;;;;;;;;1.93;83.31;99276.72;4983284;28;20312;-83
2021/11/30 17:27:46;;;;;;;;;;;;;;;1.91;83.75;99286.28;4982110;28;19957;-84
2021/11/30 17:30:13;;;;;;;;;;;;;;;1.92;83.74;99277.59;4980687;28;19953;-85
2021/11/30 17:32:39;;;;;;;;;;;;;;;1.91;83.72;99283.69;4982078;28;20431;-84
2021/11/30 17:35:05;;;;;;;;;;;;;;;1.92;83.63;99295.03;4982052;28;19926;-83
2021/11/30 17:37:30;;;;;;;;;;;;;;;1.89;83.49;99290.69;4981899;28;20266;-84
2021/11/30 17:39:56;;;;;;;;;;;;;;;1.83;83.14;99290.78;4982125;28;20020;-84
2021/11/30 17:42:21;;;;;;;;;;;;;;;1.87;82.93;99286.38;4983237;28;20313;-83
2021/11/30 17:44:46;;;;;;;;;;;;;;;1.86;82.90;99290.75;4965987;28;20004;-84
2021/11/30 17:47:11;;;;;;;;;;;;;;;1.83;82.65;99287.31;4980787;28;19921;-85
2021/11/30 17:49:37;;;;;;;;;;;;;;;1.82;83.02;99278.63;4981787;28;20363;-85
2021/11/30 17:52:02;;;;;;;;;;;;;;;1.83;83.00;99276.88;4965032;28;19933;-84
2021/11/30 17:54:28;;;;;;;;;;;;;;;1.81;83.11;99282.13;4983169;28;19918;-84
2021/11/30 17:56:54;;;;;;;;;;;;;;;1.86;83.11;99293.34;4982785;28;19922;-85
2021/11/30 17:59:19;;;;;;;;;;;;;;;1.84;82.85;99300.34;4982835;28;19921;-85
2021/11/30 18:01:46;;;;;;;;;;;;;;;1.84;82.71;99302.97;4981565;28;20373;-84
2021/11/30 18:04:12;;;;;;;;;;;;;;;1.84;82.75;99305.59;4983110;28;20285;-84
2021/11/30 18:06:37;;;;;;;;;;;;;;;1.88;82.48;99304.63;4982633;28;19926;-84
2021/11/30 18:09:03;;;;;;;;;;;;;;;1.88;82.67;99309.84;4982513;28;21103;-85
2021/11/30 18:11:29;;;;;;;;;;;;;;;1.90;82.68;99307.22;4981615;28;19984;-84
2021/11/30 18:13:54;;;;;;;;;;;;;;;1.88;82.31;99315.09;4982794;28;19918;-84
2021/11/30 18:16:20;;;;;;;;;;;;;;;1.86;82.30;99316.00;4982529;28;19941;-85
2021/11/30 18:18:46;;;;;;;;;;;;;;;1.86;82.07;99306.41;4981319;28;19925;-84
2021/11/30 18:21:12;;;;;;;;;;;;;;;1.82;82.16;99309.97;4982022;28;19929;-84
2021/11/30 18:23:37;;;;;;;;;;;;;;;1.87;82.30;99302.03;4982625;28;19917;-84
2021/11/30 18:26:03;;;;;;;;;;;;;;;1.85;82.58;99299.47;4982877;28;20316;-84
2021/11/30 18:28:28;;;;;;;;;;;;;;;1.85;82.20;99304.72;4982678;28;19918;-83
2021/11/30 18:30:53;;;;;;;;;;;;;;;1.85;82.07;99302.09;4982330;28;19918;-84
2021/11/30 18:33:19;;;;;;;;;;;;;;;1.84;82.21;99307.34;4981529;28;20016;-83
2021/11/30 18:35:45;;;;;;;;;;;;;;;1.88;82.29;99296.78;4982288;28;19918;-84
2021/11/30 18:38:10;;;;;;;;;;;;;;;1.85;81.73;99296.88;4982553;28;19918;-83
2021/11/30 18:40:36;;;;;;;;;;;;;;;1.85;81.83;99299.47;4982107;28;20382;-85
2021/11/30 18:43:01;;;;;;;;;;;;;;;1.85;81.70;99307.31;4997819;28;20321;-83
2021/11/30 18:45:27;;;;;;;;;;;;;;;1.87;81.53;99317.72;4982324;28;20440;-83
2021/11/30 18:47:53;;;;;;;;;;;;;;;1.87;81.76;99302.94;4980667;28;19961;-83
2021/11/30 18:50:18;;;;;;;;;;;;;;;1.86;81.54;99306.41;4982631;28;19917;-83
2021/11/30 18:52:43;;;;;;;;;;;;;;;1.83;81.27;99314.28;4982833;28;19922;-83
2021/11/30 18:55:09;;;;;;;;;;;;;;;1.86;81.14;99316.00;4982383;28;19918;-83
2021/11/30 18:57:34;;;;;;;;;;;;;;;1.84;80.91;99313.41;4982233;28;20017;-84
2021/11/30 19:00:03;;;;;;;;;;;;;;;1.85;80.75;99311.66;4981050;28;20377;-84
2021/11/30 19:02:28;;;;;;;;;;;;;;;1.79;80.59;99310.03;4980965;28;19922;-84
2021/11/30 19:04:53;;;;;;;;;;;;;;;1.83;80.77;99311.69;4981872;28;19932;-84
2021/11/30 19:07:18;;;;;;;;;;;;;;;1.85;80.45;99309.94;4982326;28;20372;-85
2021/11/30 19:09:44;;;;;;;;;;;;;;;1.86;80.44;99302.94;4981351;28;19928;-84
2021/11/30 19:12:11;;;;;;;;;;;;;;;1.86;80.30;99303.81;4981405;28;20270;-85
2021/11/30 19:14:36;;;;;;;;;;;;;;;1.89;79.76;99308.97;4982549;28;20457;-85
2021/11/30 19:17:02;;;;;;;;;;;;;;;1.89;79.87;99308.97;4980850;28;20017;-84
2021/11/30 19:19:30;;;;;;;;;;;;;;;1.88;80.02;99309.84;4982048;28;19918;-84
2021/11/30 19:21:56;;;;;;;;;;;;;;;1.89;79.81;99306.38;4981196;28;19922;-84
2021/11/30 19:24:21;;;;;;;;;;;;;;;1.89;79.70;99303.75;4980931;28;19918;-84
2021/11/30 19:26:46;;;;;;;;;;;;;;;1.89;79.63;99300.28;4982478;28;19925;-84
2021/11/30 19:29:12;;;;;;;;;;;;;;;1.90;79.65;99300.28;4981965;28;19922;-83
2021/11/30 19:31:37;;;;;;;;;;;;;;;1.94;79.32;99306.31;4981926;28;19922;-84
2021/11/30 19:34:02;;;;;;;;;;;;;;;1.89;79.13;99303.75;4983723;28;20367;-84
2021/11/30 19:36:28;;;;;;;;;;;;;;;1.90;78.91;99299.38;4986558;28;20347;-84
2021/11/30 19:38:53;;;;;;;;;;;;;;;1.89;79.09;99306.38;4985280;28;20370;-86
2021/11/30 19:41:19;;;;;;;;;;;;;;;1.94;79.00;99298.47;4984001;28;19925;-84
2021/11/30 19:43:45;;;;;;;;;;;;;;;1.91;79.01;99291.53;4985648;28;19953;-85
2021/11/30 19:46:10;;;;;;;;;;;;;;;1.97;79.01;99294.03;4984193;28;19922;-86
2021/11/30 19:48:37;;;;;;;;;;;;;;;1.92;78.98;99290.66;4981783;28;19918;-84
2021/11/30 19:51:03;;;;;;;;;;;;;;;1.90;78.99;99291.53;4985337;28;19964;-86
2021/11/30 19:53:29;;;;;;;;;;;;;;;1.96;79.06;99296.69;4985441;28;19958;-84
2021/11/30 19:55:54;;;;;;;;;;;;;;;1.96;78.92;99299.28;4985068;28;19965;-83
2021/11/30 19:58:19;;;;;;;;;;;;;;;1.96;78.87;99287.13;4985301;28;20285;-83
2021/11/30 20:05:18;;;;;;;;;;;;;;;1.96;78.67;99283.63;4984931;28;19922;-85
2021/11/30 20:06:17;;;;;;;;;;;;;;;1.98;78.70;99274.88;4985104;28;19926;-84
2021/11/30 20:08:42;;;;;;;;;;;;;;;1.97;78.33;99267.91;4984757;28;20273;-85
2021/11/30 20:11:08;;;;;;;;;;;;;;;1.98;78.37;99267.03;4983369;28;19972;-83
2021/11/30 20:13:35;;;;;;;;;;;;;;;2.03;78.50;99266.97;4984745;28;19928;-84
2021/11/30 20:16:07;;;;;;;;;;;;;;;2.05;78.55;99269.56;4985061;28;19977;-84
2021/11/30 20:18:33;;;;;;;;;;;;;;;2.05;78.63;99274.78;4983066;28;19918;-82
2021/11/30 20:20:58;;;;;;;;;;;;;;;2.06;78.62;99268.66;4985133;28;19936;-85
2021/11/30 20:23:24;;;;;;;;;;;;;;;2.04;78.43;99278.28;4984840;28;19918;-82
2021/11/30 20:25:50;;;;;;;;;;;;;;;2.08;78.43;99274.72;4984211;28;19918;-85
2021/11/30 20:28:17;;;;;;;;;;;;;;;2.09;78.42;99268.59;4984538;28;20864;-83
2021/11/30 20:30:43;;;;;;;;;;;;;;;2.07;78.43;99268.63;4984149;28;19922;-85
2021/11/30 20:33:09;;;;;;;;;;;;;;;2.10;78.28;99271.19;4983451;28;19925;-83
2021/11/30 20:40:48;;;;;;;;;;;;;;;2.12;78.24;99266.81;4984005;28;20005;-84
2021/11/30 20:43:15;;;;;;;;;;;;;;;2.14;77.91;99261.56;4981961;28;19917;-85
2021/11/30 20:45:42;;;;;;;;;;;;;;;2.14;77.89;99258.94;4989824;28;20331;-85
2021/11/30 20:48:07;;;;;;;;;;;;;;;2.15;77.72;99264.16;4981659;28;19922;-83
2021/11/30 20:50:34;;;;;;;;;;;;;;;2.16;77.60;99257.16;4984369;28;19925;-83
2021/11/30 20:52:59;;;;;;;;;;;;;;;2.18;77.69;99256.22;4982651;28;20372;-82
2021/11/30 20:55:28;;;;;;;;;;;;;;;2.19;77.64;99254.50;4984405;28;20016;-85